sensor_id;sensor_type;location;lat;lon;timestamp;P1;durP1;ratioP1;P2;durP2;ratioP2
73919;SDS011;62266;53.348;-1.496;2022-07-18T00:00:05;2.97;;;2.17;;
73919;SDS011;62266;53.348;-1.496;2022-07-18T00:02:32;2.57;;;2.37;;
73919;SDS011;62266;53.348;-1.496;2022-07-18T00:04:58;4.28;;;2.50;;
73919;SDS011;62266;53.348;-1.496;2022-07-18T00:07:24;3.08;;;2.50;;
73919;SDS011;62266;53.348;-1.496;2022-07-18T00:09:49;4.00;;;2.50;;
73919;SDS011;62266;53.348;-1.496;2022-07-18T00:12:15;2.77;;;2.20;;
73919;SDS011;62266;53.348;-1.496;2022-07-18T00:14:41;4.68;;;2.63;;
73919;SDS011;62266;53.348;-1.496;2022-07-18T00:17:07;3.97;;;2.47;;
73919;SDS011;62266;53.348;-1.496;2022-07-18T00:19:34;4.03;;;2.50;;
73919;SDS011;62266;53.348;-1.496;2022-07-18T00:22:00;3.65;;;2.55;;
73919;SDS011;62266;53.348;-1.496;2022-07-18T00:24:26;4.15;;;2.47;;
73919;SDS011;62266;53.348;-1.496;2022-07-18T00:26:52;3.35;;;2.45;;
73919;SDS011;62266;53.348;-1.496;2022-07-18T00:29:18;3.20;;;2.33;;
73919;SDS011;62266;53.348;-1.496;2022-07-18T00:31:43;5.32;;;2.33;;
73919;SDS011;62266;53.348;-1.496;2022-07-18T00:34:09;3.00;;;2.10;;
73919;SDS011;62266;53.348;-1.496;2022-07-18T00:36:35;4.35;;;2.30;;
73919;SDS011;62266;53.348;-1.496;2022-07-18T00:39:01;3.87;;;2.30;;
73919;SDS011;62266;53.348;-1.496;2022-07-18T00:41:27;3.55;;;2.33;;
73919;SDS011;62266;53.348;-1.496;2022-07-18T00:43:52;3.00;;;2.13;;
73919;SDS011;62266;53.348;-1.496;2022-07-18T00:46:22;4.60;;;2.42;;
73919;SDS011;62266;53.348;-1.496;2022-07-18T00:48:48;5.00;;;2.40;;
73919;SDS011;62266;53.348;-1.496;2022-07-18T00:51:14;4.25;;;2.55;;
73919;SDS011;62266;53.348;-1.496;2022-07-18T00:53:40;3.95;;;2.17;;
73919;SDS011;62266;53.348;-1.496;2022-07-18T00:56:06;3.37;;;2.10;;
73919;SDS011;62266;53.348;-1.496;2022-07-18T00:58:32;3.63;;;2.30;;
73919;SDS011;62266;53.348;-1.496;2022-07-18T01:00:58;4.55;;;2.50;;
73919;SDS011;62266;53.348;-1.496;2022-07-18T01:03:42;3.07;;;2.20;;
73919;SDS011;62266;53.348;-1.496;2022-07-18T01:06:08;5.75;;;2.60;;
73919;SDS011;62266;53.348;-1.496;2022-07-18T01:08:34;3.05;;;2.30;;
73919;SDS011;62266;53.348;-1.496;2022-07-18T01:11:00;4.35;;;2.50;;
73919;SDS011;62266;53.348;-1.496;2022-07-18T01:13:26;3.17;;;2.33;;
73919;SDS011;62266;53.348;-1.496;2022-07-18T01:15:52;3.43;;;2.00;;
73919;SDS011;62266;53.348;-1.496;2022-07-18T01:18:18;4.73;;;2.33;;
73919;SDS011;62266;53.348;-1.496;2022-07-18T01:20:44;5.70;;;2.53;;
73919;SDS011;62266;53.348;-1.496;2022-07-18T01:23:09;3.53;;;2.60;;
73919;SDS011;62266;53.348;-1.496;2022-07-18T01:25:35;3.45;;;2.60;;
73919;SDS011;62266;53.348;-1.496;2022-07-18T01:28:00;4.00;;;2.53;;
73919;SDS011;62266;53.348;-1.496;2022-07-18T01:30:26;4.65;;;2.53;;
73919;SDS011;62266;53.348;-1.496;2022-07-18T01:32:58;2.80;;;2.50;;
73919;SDS011;62266;53.348;-1.496;2022-07-18T01:35:26;2.95;;;2.70;;
73919;SDS011;62266;53.348;-1.496;2022-07-18T01:37:52;5.55;;;2.58;;
73919;SDS011;62266;53.348;-1.496;2022-07-18T01:40:18;5.15;;;2.63;;
73919;SDS011;62266;53.348;-1.496;2022-07-18T01:42:44;4.60;;;2.50;;
73919;SDS011;62266;53.348;-1.496;2022-07-18T01:45:09;3.87;;;3.00;;
73919;SDS011;62266;53.348;-1.496;2022-07-18T01:47:35;5.95;;;2.85;;
73919;SDS011;62266;53.348;-1.496;2022-07-18T01:50:01;4.90;;;3.10;;
73919;SDS011;62266;53.348;-1.496;2022-07-18T01:52:26;4.55;;;2.47;;
73919;SDS011;62266;53.348;-1.496;2022-07-18T01:54:52;7.27;;;2.47;;
73919;SDS011;62266;53.348;-1.496;2022-07-18T01:57:18;7.38;;;2.72;;
73919;SDS011;62266;53.348;-1.496;2022-07-18T01:59:44;6.82;;;2.85;;
73919;SDS011;62266;53.348;-1.496;2022-07-18T02:02:10;3.37;;;2.90;;
73919;SDS011;62266;53.348;-1.496;2022-07-18T02:04:35;2.93;;;2.63;;
73919;SDS011;62266;53.348;-1.496;2022-07-18T02:07:20;6.10;;;3.05;;
73919;SDS011;62266;53.348;-1.496;2022-07-18T02:09:45;5.07;;;3.00;;
73919;SDS011;62266;53.348;-1.496;2022-07-18T02:12:11;3.60;;;2.90;;
73919;SDS011;62266;53.348;-1.496;2022-07-18T02:14:37;4.95;;;3.22;;
73919;SDS011;62266;53.348;-1.496;2022-07-18T02:17:03;4.03;;;3.00;;
73919;SDS011;62266;53.348;-1.496;2022-07-18T02:19:29;3.95;;;3.08;;
73919;SDS011;62266;53.348;-1.496;2022-07-18T02:21:55;4.93;;;3.45;;
73919;SDS011;62266;53.348;-1.496;2022-07-18T02:24:20;5.23;;;3.13;;
73919;SDS011;62266;53.348;-1.496;2022-07-18T02:26:46;5.07;;;3.58;;
73919;SDS011;62266;53.348;-1.496;2022-07-18T02:29:12;4.60;;;3.37;;
73919;SDS011;62266;53.348;-1.496;2022-07-18T02:31:38;5.13;;;3.38;;
73919;SDS011;62266;53.348;-1.496;2022-07-18T02:34:03;4.67;;;3.30;;
73919;SDS011;62266;53.348;-1.496;2022-07-18T02:36:38;4.78;;;3.65;;
73919;SDS011;62266;53.348;-1.496;2022-07-18T02:39:05;3.95;;;3.42;;
73919;SDS011;62266;53.348;-1.496;2022-07-18T02:41:31;4.15;;;3.38;;
73919;SDS011;62266;53.348;-1.496;2022-07-18T02:43:57;3.63;;;3.13;;
73919;SDS011;62266;53.348;-1.496;2022-07-18T02:46:23;5.43;;;3.55;;
73919;SDS011;62266;53.348;-1.496;2022-07-18T02:48:49;6.40;;;3.83;;
73919;SDS011;62266;53.348;-1.496;2022-07-18T02:51:15;5.77;;;3.70;;
73919;SDS011;62266;53.348;-1.496;2022-07-18T02:53:40;5.55;;;3.83;;
73919;SDS011;62266;53.348;-1.496;2022-07-18T02:56:06;7.07;;;4.00;;
73919;SDS011;62266;53.348;-1.496;2022-07-18T02:58:32;6.00;;;3.90;;
73919;SDS011;62266;53.348;-1.496;2022-07-18T03:00:58;5.20;;;3.90;;
73919;SDS011;62266;53.348;-1.496;2022-07-18T03:03:24;4.97;;;3.60;;
73919;SDS011;62266;53.348;-1.496;2022-07-18T03:05:51;5.15;;;3.95;;
73919;SDS011;62266;53.348;-1.496;2022-07-18T03:08:16;4.70;;;3.33;;
73919;SDS011;62266;53.348;-1.496;2022-07-18T03:10:42;5.13;;;4.00;;
73919;SDS011;62266;53.348;-1.496;2022-07-18T03:13:09;5.22;;;3.65;;
73919;SDS011;62266;53.348;-1.496;2022-07-18T03:15:36;6.70;;;3.80;;
73919;SDS011;62266;53.348;-1.496;2022-07-18T03:18:02;5.85;;;4.15;;
73919;SDS011;62266;53.348;-1.496;2022-07-18T03:20:28;4.67;;;3.83;;
73919;SDS011;62266;53.348;-1.496;2022-07-18T03:22:54;6.60;;;4.20;;
73919;SDS011;62266;53.348;-1.496;2022-07-18T03:25:20;5.90;;;4.03;;
73919;SDS011;62266;53.348;-1.496;2022-07-18T03:27:46;5.17;;;4.00;;
73919;SDS011;62266;53.348;-1.496;2022-07-18T03:30:11;4.53;;;3.67;;
73919;SDS011;62266;53.348;-1.496;2022-07-18T03:32:37;5.83;;;3.77;;
73919;SDS011;62266;53.348;-1.496;2022-07-18T03:35:03;5.10;;;3.90;;
73919;SDS011;62266;53.348;-1.496;2022-07-18T03:37:29;5.20;;;3.85;;
73919;SDS011;62266;53.348;-1.496;2022-07-18T03:39:55;7.40;;;4.25;;
73919;SDS011;62266;53.348;-1.496;2022-07-18T03:42:21;4.97;;;3.80;;
73919;SDS011;62266;53.348;-1.496;2022-07-18T03:44:46;6.53;;;4.17;;
73919;SDS011;62266;53.348;-1.496;2022-07-18T03:47:12;4.65;;;3.67;;
73919;SDS011;62266;53.348;-1.496;2022-07-18T03:49:37;5.17;;;3.93;;
73919;SDS011;62266;53.348;-1.496;2022-07-18T03:52:03;5.30;;;3.47;;
73919;SDS011;62266;53.348;-1.496;2022-07-18T03:54:30;4.25;;;3.80;;
73919;SDS011;62266;53.348;-1.496;2022-07-18T03:56:55;5.13;;;3.60;;
73919;SDS011;62266;53.348;-1.496;2022-07-18T03:59:21;8.13;;;3.80;;
73919;SDS011;62266;53.348;-1.496;2022-07-18T04:01:48;4.25;;;3.60;;
73919;SDS011;62266;53.348;-1.496;2022-07-18T04:04:14;5.82;;;3.67;;
73919;SDS011;62266;53.348;-1.496;2022-07-18T04:06:40;3.50;;;2.93;;
73919;SDS011;62266;53.348;-1.496;2022-07-18T04:09:05;4.30;;;3.17;;
73919;SDS011;62266;53.348;-1.496;2022-07-18T04:11:31;4.63;;;3.17;;
73919;SDS011;62266;53.348;-1.496;2022-07-18T04:13:58;5.28;;;3.75;;
73919;SDS011;62266;53.348;-1.496;2022-07-18T04:16:29;5.50;;;3.23;;
73919;SDS011;62266;53.348;-1.496;2022-07-18T04:18:58;4.60;;;3.50;;
73919;SDS011;62266;53.348;-1.496;2022-07-18T04:21:24;5.38;;;3.70;;
73919;SDS011;62266;53.348;-1.496;2022-07-18T04:23:50;5.53;;;3.37;;
73919;SDS011;62266;53.348;-1.496;2022-07-18T04:26:16;5.05;;;3.65;;
73919;SDS011;62266;53.348;-1.496;2022-07-18T04:28:41;6.43;;;3.67;;
73919;SDS011;62266;53.348;-1.496;2022-07-18T04:31:07;4.65;;;3.50;;
73919;SDS011;62266;53.348;-1.496;2022-07-18T04:33:32;6.00;;;3.67;;
73919;SDS011;62266;53.348;-1.496;2022-07-18T04:35:58;5.88;;;3.72;;
73919;SDS011;62266;53.348;-1.496;2022-07-18T04:38:24;5.00;;;3.40;;
73919;SDS011;62266;53.348;-1.496;2022-07-18T04:40:49;3.97;;;3.30;;
73919;SDS011;62266;53.348;-1.496;2022-07-18T04:43:15;4.43;;;3.47;;
73919;SDS011;62266;53.348;-1.496;2022-07-18T04:45:40;4.93;;;3.40;;
73919;SDS011;62266;53.348;-1.496;2022-07-18T04:48:06;5.50;;;3.20;;
73919;SDS011;62266;53.348;-1.496;2022-07-18T04:50:32;4.67;;;3.63;;
73919;SDS011;62266;53.348;-1.496;2022-07-18T04:52:58;4.70;;;3.47;;
73919;SDS011;62266;53.348;-1.496;2022-07-18T04:55:23;5.40;;;3.40;;
73919;SDS011;62266;53.348;-1.496;2022-07-18T04:57:50;4.80;;;3.17;;
73919;SDS011;62266;53.348;-1.496;2022-07-18T05:00:18;4.18;;;3.20;;
73919;SDS011;62266;53.348;-1.496;2022-07-18T05:02:48;3.63;;;3.15;;
73919;SDS011;62266;53.348;-1.496;2022-07-18T05:05:15;5.60;;;3.80;;
73919;SDS011;62266;53.348;-1.496;2022-07-18T05:10:23;8.23;;;3.70;;
73919;SDS011;62266;53.348;-1.496;2022-07-18T05:12:52;4.50;;;3.35;;
73919;SDS011;62266;53.348;-1.496;2022-07-18T05:15:20;4.50;;;3.30;;
73919;SDS011;62266;53.348;-1.496;2022-07-18T05:17:47;5.45;;;3.30;;
73919;SDS011;62266;53.348;-1.496;2022-07-18T05:22:49;4.13;;;3.13;;
73919;SDS011;62266;53.348;-1.496;2022-07-18T05:25:17;4.40;;;3.33;;
73919;SDS011;62266;53.348;-1.496;2022-07-18T05:27:44;5.35;;;3.47;;
73919;SDS011;62266;53.348;-1.496;2022-07-18T05:30:11;5.05;;;3.70;;
73919;SDS011;62266;53.348;-1.496;2022-07-18T05:32:38;3.93;;;3.20;;
73919;SDS011;62266;53.348;-1.496;2022-07-18T05:35:05;4.40;;;3.30;;
73919;SDS011;62266;53.348;-1.496;2022-07-18T05:37:32;4.90;;;3.10;;
73919;SDS011;62266;53.348;-1.496;2022-07-18T05:40:00;6.47;;;3.72;;
73919;SDS011;62266;53.348;-1.496;2022-07-18T05:42:27;4.63;;;3.58;;
73919;SDS011;62266;53.348;-1.496;2022-07-18T05:44:53;5.00;;;3.50;;
73919;SDS011;62266;53.348;-1.496;2022-07-18T05:47:18;5.17;;;3.57;;
73919;SDS011;62266;53.348;-1.496;2022-07-18T05:49:44;3.83;;;3.17;;
73919;SDS011;62266;53.348;-1.496;2022-07-18T05:52:10;4.80;;;3.17;;
73919;SDS011;62266;53.348;-1.496;2022-07-18T05:54:35;4.30;;;3.00;;
73919;SDS011;62266;53.348;-1.496;2022-07-18T05:57:01;5.00;;;3.55;;
73919;SDS011;62266;53.348;-1.496;2022-07-18T05:59:27;4.63;;;3.27;;
73919;SDS011;62266;53.348;-1.496;2022-07-18T06:01:52;4.03;;;3.28;;
73919;SDS011;62266;53.348;-1.496;2022-07-18T06:04:18;5.23;;;3.43;;
73919;SDS011;62266;53.348;-1.496;2022-07-18T06:06:44;8.77;;;3.35;;
73919;SDS011;62266;53.348;-1.496;2022-07-18T06:09:10;3.63;;;2.90;;
73919;SDS011;62266;53.348;-1.496;2022-07-18T06:11:35;4.35;;;3.45;;
73919;SDS011;62266;53.348;-1.496;2022-07-18T06:14:01;3.65;;;3.30;;
73919;SDS011;62266;53.348;-1.496;2022-07-18T06:16:30;4.27;;;3.10;;
73919;SDS011;62266;53.348;-1.496;2022-07-18T06:18:56;4.97;;;3.08;;
73919;SDS011;62266;53.348;-1.496;2022-07-18T06:21:22;4.93;;;3.60;;
73919;SDS011;62266;53.348;-1.496;2022-07-18T06:23:48;4.57;;;3.10;;
73919;SDS011;62266;53.348;-1.496;2022-07-18T06:26:14;4.20;;;3.37;;
73919;SDS011;62266;53.348;-1.496;2022-07-18T06:28:39;4.63;;;3.47;;
73919;SDS011;62266;53.348;-1.496;2022-07-18T06:31:05;3.47;;;3.03;;
73919;SDS011;62266;53.348;-1.496;2022-07-18T06:33:31;4.85;;;3.47;;
73919;SDS011;62266;53.348;-1.496;2022-07-18T06:35:57;4.57;;;2.93;;
73919;SDS011;62266;53.348;-1.496;2022-07-18T06:38:23;4.80;;;3.30;;
73919;SDS011;62266;53.348;-1.496;2022-07-18T06:40:48;5.13;;;3.40;;
73919;SDS011;62266;53.348;-1.496;2022-07-18T06:43:14;4.95;;;3.33;;
73919;SDS011;62266;53.348;-1.496;2022-07-18T06:45:47;3.85;;;3.45;;
73919;SDS011;62266;53.348;-1.496;2022-07-18T06:48:14;4.83;;;3.40;;
73919;SDS011;62266;53.348;-1.496;2022-07-18T06:50:40;5.28;;;3.47;;
73919;SDS011;62266;53.348;-1.496;2022-07-18T06:53:06;7.18;;;3.20;;
73919;SDS011;62266;53.348;-1.496;2022-07-18T06:55:32;6.37;;;3.17;;
73919;SDS011;62266;53.348;-1.496;2022-07-18T06:57:57;5.10;;;3.40;;
73919;SDS011;62266;53.348;-1.496;2022-07-18T07:00:23;4.30;;;3.00;;
73919;SDS011;62266;53.348;-1.496;2022-07-18T07:02:49;3.90;;;2.95;;
73919;SDS011;62266;53.348;-1.496;2022-07-18T07:05:18;3.53;;;2.63;;
73919;SDS011;62266;53.348;-1.496;2022-07-18T07:07:44;6.13;;;3.40;;
73919;SDS011;62266;53.348;-1.496;2022-07-18T07:10:10;6.35;;;2.92;;
73919;SDS011;62266;53.348;-1.496;2022-07-18T07:12:44;6.50;;;3.38;;
73919;SDS011;62266;53.348;-1.496;2022-07-18T07:15:13;4.50;;;3.27;;
73919;SDS011;62266;53.348;-1.496;2022-07-18T07:17:39;4.53;;;3.30;;
73919;SDS011;62266;53.348;-1.496;2022-07-18T07:20:06;4.43;;;3.15;;
73919;SDS011;62266;53.348;-1.496;2022-07-18T07:22:40;5.32;;;3.22;;
73919;SDS011;62266;53.348;-1.496;2022-07-18T07:25:09;3.88;;;2.85;;
73919;SDS011;62266;53.348;-1.496;2022-07-18T07:27:36;5.93;;;3.07;;
73919;SDS011;62266;53.348;-1.496;2022-07-18T07:30:01;7.30;;;3.13;;
73919;SDS011;62266;53.348;-1.496;2022-07-18T07:32:27;7.67;;;3.00;;
73919;SDS011;62266;53.348;-1.496;2022-07-18T07:34:53;6.10;;;2.85;;
73919;SDS011;62266;53.348;-1.496;2022-07-18T07:37:19;3.60;;;2.67;;
73919;SDS011;62266;53.348;-1.496;2022-07-18T07:39:44;4.50;;;3.20;;
73919;SDS011;62266;53.348;-1.496;2022-07-18T07:42:11;7.13;;;3.28;;
73919;SDS011;62266;53.348;-1.496;2022-07-18T07:44:36;4.00;;;2.67;;
73919;SDS011;62266;53.348;-1.496;2022-07-18T07:47:02;6.07;;;3.10;;
73919;SDS011;62266;53.348;-1.496;2022-07-18T07:49:28;4.20;;;3.10;;
73919;SDS011;62266;53.348;-1.496;2022-07-18T07:51:54;4.70;;;3.08;;
73919;SDS011;62266;53.348;-1.496;2022-07-18T07:54:19;6.83;;;2.90;;
73919;SDS011;62266;53.348;-1.496;2022-07-18T07:56:45;7.43;;;3.38;;
73919;SDS011;62266;53.348;-1.496;2022-07-18T07:59:10;5.07;;;3.17;;
73919;SDS011;62266;53.348;-1.496;2022-07-18T08:01:36;5.82;;;3.08;;
73919;SDS011;62266;53.348;-1.496;2022-07-18T08:04:01;6.20;;;2.73;;
73919;SDS011;62266;53.348;-1.496;2022-07-18T08:06:27;4.60;;;3.10;;
73919;SDS011;62266;53.348;-1.496;2022-07-18T08:08:52;7.82;;;2.92;;
73919;SDS011;62266;53.348;-1.496;2022-07-18T08:11:18;6.13;;;3.07;;
73919;SDS011;62266;53.348;-1.496;2022-07-18T08:13:43;5.40;;;3.20;;
73919;SDS011;62266;53.348;-1.496;2022-07-18T08:16:09;7.22;;;3.05;;
73919;SDS011;62266;53.348;-1.496;2022-07-18T08:18:34;6.63;;;3.20;;
73919;SDS011;62266;53.348;-1.496;2022-07-18T08:21:00;6.77;;;3.27;;
73919;SDS011;62266;53.348;-1.496;2022-07-18T08:23:26;6.47;;;3.05;;
73919;SDS011;62266;53.348;-1.496;2022-07-18T08:25:51;3.80;;;2.90;;
73919;SDS011;62266;53.348;-1.496;2022-07-18T08:28:18;6.13;;;3.15;;
73919;SDS011;62266;53.348;-1.496;2022-07-18T08:30:43;4.50;;;3.22;;
73919;SDS011;62266;53.348;-1.496;2022-07-18T08:33:09;6.43;;;3.37;;
73919;SDS011;62266;53.348;-1.496;2022-07-18T08:35:35;5.72;;;3.00;;
73919;SDS011;62266;53.348;-1.496;2022-07-18T08:38:01;6.25;;;3.08;;
73919;SDS011;62266;53.348;-1.496;2022-07-18T08:40:28;9.00;;;3.33;;
73919;SDS011;62266;53.348;-1.496;2022-07-18T08:42:55;3.70;;;2.77;;
73919;SDS011;62266;53.348;-1.496;2022-07-18T08:45:22;8.15;;;2.83;;
73919;SDS011;62266;53.348;-1.496;2022-07-18T08:47:48;4.65;;;3.00;;
73919;SDS011;62266;53.348;-1.496;2022-07-18T08:50:14;5.10;;;3.10;;
73919;SDS011;62266;53.348;-1.496;2022-07-18T08:52:39;5.40;;;3.25;;
73919;SDS011;62266;53.348;-1.496;2022-07-18T08:55:08;6.00;;;3.00;;
73919;SDS011;62266;53.348;-1.496;2022-07-18T08:57:34;4.65;;;3.13;;
73919;SDS011;62266;53.348;-1.496;2022-07-18T09:00:01;8.23;;;3.43;;
73919;SDS011;62266;53.348;-1.496;2022-07-18T09:02:31;4.88;;;3.10;;
73919;SDS011;62266;53.348;-1.496;2022-07-18T09:05:00;6.28;;;3.00;;
73919;SDS011;62266;53.348;-1.496;2022-07-18T09:07:30;4.80;;;2.78;;
73919;SDS011;62266;53.348;-1.496;2022-07-18T09:09:58;4.03;;;2.57;;
73919;SDS011;62266;53.348;-1.496;2022-07-18T09:12:28;8.18;;;3.00;;
73919;SDS011;62266;53.348;-1.496;2022-07-18T09:14:56;5.80;;;3.10;;
73919;SDS011;62266;53.348;-1.496;2022-07-18T09:17:23;4.07;;;3.00;;
73919;SDS011;62266;53.348;-1.496;2022-07-18T09:22:37;7.13;;;2.90;;
73919;SDS011;62266;53.348;-1.496;2022-07-18T09:25:07;7.05;;;2.90;;
73919;SDS011;62266;53.348;-1.496;2022-07-18T09:27:35;9.32;;;3.35;;
73919;SDS011;62266;53.348;-1.496;2022-07-18T09:30:10;4.72;;;2.83;;
73919;SDS011;62266;53.348;-1.496;2022-07-18T09:32:37;5.75;;;2.90;;
73919;SDS011;62266;53.348;-1.496;2022-07-18T09:35:11;3.97;;;2.80;;
73919;SDS011;62266;53.348;-1.496;2022-07-18T09:37:38;4.70;;;2.85;;
73919;SDS011;62266;53.348;-1.496;2022-07-18T09:40:17;3.95;;;2.60;;
73919;SDS011;62266;53.348;-1.496;2022-07-18T09:42:47;3.97;;;2.83;;
73919;SDS011;62266;53.348;-1.496;2022-07-18T09:45:14;3.80;;;2.75;;
73919;SDS011;62266;53.348;-1.496;2022-07-18T09:47:50;4.67;;;2.60;;
73919;SDS011;62266;53.348;-1.496;2022-07-18T09:50:40;4.90;;;2.90;;
73919;SDS011;62266;53.348;-1.496;2022-07-18T09:53:16;5.30;;;2.75;;
73919;SDS011;62266;53.348;-1.496;2022-07-18T09:55:48;3.03;;;2.57;;
73919;SDS011;62266;53.348;-1.496;2022-07-18T09:58:50;4.75;;;2.85;;
73919;SDS011;62266;53.348;-1.496;2022-07-18T10:01:17;3.13;;;2.55;;
73919;SDS011;62266;53.348;-1.496;2022-07-18T10:03:43;3.10;;;2.60;;
73919;SDS011;62266;53.348;-1.496;2022-07-18T10:06:08;5.85;;;2.65;;
73919;SDS011;62266;53.348;-1.496;2022-07-18T10:08:34;3.83;;;2.60;;
73919;SDS011;62266;53.348;-1.496;2022-07-18T10:11:02;3.67;;;2.72;;
73919;SDS011;62266;53.348;-1.496;2022-07-18T10:13:30;2.92;;;2.53;;
73919;SDS011;62266;53.348;-1.496;2022-07-18T10:15:57;4.13;;;2.40;;
73919;SDS011;62266;53.348;-1.496;2022-07-18T10:18:24;2.85;;;2.50;;
73919;SDS011;62266;53.348;-1.496;2022-07-18T10:20:52;4.40;;;2.60;;
73919;SDS011;62266;53.348;-1.496;2022-07-18T10:23:26;2.78;;;2.45;;
73919;SDS011;62266;53.348;-1.496;2022-07-18T10:31:29;3.00;;;2.10;;
73919;SDS011;62266;53.348;-1.496;2022-07-18T10:36:30;7.18;;;2.97;;
73919;SDS011;62266;53.348;-1.496;2022-07-18T10:39:03;2.60;;;2.17;;
73919;SDS011;62266;53.348;-1.496;2022-07-18T10:41:29;2.90;;;2.67;;
73919;SDS011;62266;53.348;-1.496;2022-07-18T10:43:54;3.20;;;2.43;;
73919;SDS011;62266;53.348;-1.496;2022-07-18T10:46:20;4.57;;;3.00;;
73919;SDS011;62266;53.348;-1.496;2022-07-18T10:48:49;3.78;;;3.20;;
73919;SDS011;62266;53.348;-1.496;2022-07-18T10:51:16;3.40;;;3.10;;
73919;SDS011;62266;53.348;-1.496;2022-07-18T10:53:55;3.92;;;2.35;;
73919;SDS011;62266;53.348;-1.496;2022-07-18T10:56:22;2.30;;;2.10;;
73919;SDS011;62266;53.348;-1.496;2022-07-18T10:59:14;4.10;;;2.85;;
73919;SDS011;62266;53.348;-1.496;2022-07-18T11:01:52;6.22;;;4.50;;
73919;SDS011;62266;53.348;-1.496;2022-07-18T11:12:27;2.90;;;2.60;;
73919;SDS011;62266;53.348;-1.496;2022-07-18T11:15:15;3.95;;;2.20;;
73919;SDS011;62266;53.348;-1.496;2022-07-18T11:17:56;2.85;;;2.10;;
73919;SDS011;62266;53.348;-1.496;2022-07-18T11:23:02;4.33;;;2.00;;
73919;SDS011;62266;53.348;-1.496;2022-07-18T11:25:29;2.15;;;1.95;;
73919;SDS011;62266;53.348;-1.496;2022-07-18T11:27:55;1.88;;;1.75;;
73919;SDS011;62266;53.348;-1.496;2022-07-18T11:30:22;3.30;;;2.00;;
73919;SDS011;62266;53.348;-1.496;2022-07-18T11:32:51;3.67;;;1.90;;
73919;SDS011;62266;53.348;-1.496;2022-07-18T11:35:21;3.70;;;2.23;;
73919;SDS011;62266;53.348;-1.496;2022-07-18T11:37:48;1.60;;;1.50;;
73919;SDS011;62266;53.348;-1.496;2022-07-18T11:40:16;3.80;;;1.92;;
73919;SDS011;62266;53.348;-1.496;2022-07-18T11:42:42;3.08;;;1.95;;
73919;SDS011;62266;53.348;-1.496;2022-07-18T11:45:11;2.97;;;1.90;;
73919;SDS011;62266;53.348;-1.496;2022-07-18T11:47:39;2.10;;;1.80;;
73919;SDS011;62266;53.348;-1.496;2022-07-18T11:50:15;2.72;;;1.60;;
73919;SDS011;62266;53.348;-1.496;2022-07-18T11:52:43;2.00;;;1.67;;
73919;SDS011;62266;53.348;-1.496;2022-07-18T11:55:10;1.83;;;1.70;;
73919;SDS011;62266;53.348;-1.496;2022-07-18T11:57:36;2.25;;;1.60;;
73919;SDS011;62266;53.348;-1.496;2022-07-18T12:00:13;4.00;;;1.70;;
73919;SDS011;62266;53.348;-1.496;2022-07-18T12:05:34;2.15;;;1.60;;
73919;SDS011;62266;53.348;-1.496;2022-07-18T12:11:02;3.28;;;1.60;;
73919;SDS011;62266;53.348;-1.496;2022-07-18T12:13:38;2.72;;;1.60;;
73919;SDS011;62266;53.348;-1.496;2022-07-18T12:16:07;2.75;;;1.70;;
73919;SDS011;62266;53.348;-1.496;2022-07-18T12:18:33;2.10;;;1.47;;
73919;SDS011;62266;53.348;-1.496;2022-07-18T12:21:08;2.83;;;1.50;;
73919;SDS011;62266;53.348;-1.496;2022-07-18T12:23:34;1.60;;;1.20;;
73919;SDS011;62266;53.348;-1.496;2022-07-18T12:25:59;4.80;;;1.52;;
73919;SDS011;62266;53.348;-1.496;2022-07-18T12:28:27;2.08;;;1.50;;
73919;SDS011;62266;53.348;-1.496;2022-07-18T12:30:53;2.83;;;1.80;;
73919;SDS011;62266;53.348;-1.496;2022-07-18T12:33:19;2.85;;;1.50;;
73919;SDS011;62266;53.348;-1.496;2022-07-18T12:35:47;1.70;;;1.52;;
73919;SDS011;62266;53.348;-1.496;2022-07-18T12:38:23;1.90;;;1.73;;
73919;SDS011;62266;53.348;-1.496;2022-07-18T12:41:02;3.00;;;1.83;;
73919;SDS011;62266;53.348;-1.496;2022-07-18T12:43:30;2.07;;;1.43;;
73919;SDS011;62266;53.348;-1.496;2022-07-18T12:46:02;3.05;;;1.73;;
73919;SDS011;62266;53.348;-1.496;2022-07-18T12:48:31;3.67;;;1.70;;
73919;SDS011;62266;53.348;-1.496;2022-07-18T12:51:07;2.45;;;1.45;;
73919;SDS011;62266;53.348;-1.496;2022-07-18T12:53:35;2.85;;;1.92;;
73919;SDS011;62266;53.348;-1.496;2022-07-18T12:56:02;3.47;;;1.90;;
73919;SDS011;62266;53.348;-1.496;2022-07-18T12:58:28;2.03;;;1.70;;
73919;SDS011;62266;53.348;-1.496;2022-07-18T13:00:53;2.87;;;2.07;;
73919;SDS011;62266;53.348;-1.496;2022-07-18T13:03:21;2.90;;;1.77;;
73919;SDS011;62266;53.348;-1.496;2022-07-18T13:05:46;2.33;;;1.55;;
73919;SDS011;62266;53.348;-1.496;2022-07-18T13:08:13;2.13;;;1.90;;
73919;SDS011;62266;53.348;-1.496;2022-07-18T13:10:39;1.90;;;1.80;;
73919;SDS011;62266;53.348;-1.496;2022-07-18T13:13:05;2.53;;;1.77;;
73919;SDS011;62266;53.348;-1.496;2022-07-18T13:15:32;2.90;;;1.98;;
73919;SDS011;62266;53.348;-1.496;2022-07-18T13:17:59;2.10;;;1.80;;
73919;SDS011;62266;53.348;-1.496;2022-07-18T13:20:24;2.20;;;2.00;;
73919;SDS011;62266;53.348;-1.496;2022-07-18T13:22:50;2.92;;;2.20;;
73919;SDS011;62266;53.348;-1.496;2022-07-18T13:25:17;2.65;;;2.20;;
73919;SDS011;62266;53.348;-1.496;2022-07-18T13:27:42;3.20;;;2.10;;
73919;SDS011;62266;53.348;-1.496;2022-07-18T13:30:08;2.35;;;1.77;;
73919;SDS011;62266;53.348;-1.496;2022-07-18T13:32:35;3.15;;;2.05;;
73919;SDS011;62266;53.348;-1.496;2022-07-18T13:35:01;3.30;;;1.90;;
73919;SDS011;62266;53.348;-1.496;2022-07-18T13:37:27;3.70;;;2.00;;
73919;SDS011;62266;53.348;-1.496;2022-07-18T13:39:53;2.05;;;1.85;;
73919;SDS011;62266;53.348;-1.496;2022-07-18T13:42:18;2.70;;;1.97;;
73919;SDS011;62266;53.348;-1.496;2022-07-18T13:44:45;5.40;;;2.17;;
73919;SDS011;62266;53.348;-1.496;2022-07-18T13:47:14;4.13;;;1.70;;
73919;SDS011;62266;53.348;-1.496;2022-07-18T13:49:42;2.97;;;1.80;;
73919;SDS011;62266;53.348;-1.496;2022-07-18T13:52:09;4.32;;;1.85;;
73919;SDS011;62266;53.348;-1.496;2022-07-18T13:54:35;2.28;;;1.58;;
73919;SDS011;62266;53.348;-1.496;2022-07-18T13:57:00;3.17;;;1.60;;
73919;SDS011;62266;53.348;-1.496;2022-07-18T13:59:26;1.73;;;1.37;;
73919;SDS011;62266;53.348;-1.496;2022-07-18T14:01:52;3.50;;;1.73;;
73919;SDS011;62266;53.348;-1.496;2022-07-18T14:04:18;2.63;;;1.42;;
73919;SDS011;62266;53.348;-1.496;2022-07-18T14:06:45;3.97;;;1.60;;
73919;SDS011;62266;53.348;-1.496;2022-07-18T14:09:11;1.58;;;1.25;;
73919;SDS011;62266;53.348;-1.496;2022-07-18T14:11:37;1.90;;;1.50;;
73919;SDS011;62266;53.348;-1.496;2022-07-18T14:14:03;3.37;;;1.50;;
73919;SDS011;62266;53.348;-1.496;2022-07-18T14:16:29;4.63;;;1.40;;
73919;SDS011;62266;53.348;-1.496;2022-07-18T14:18:55;3.92;;;1.30;;
73919;SDS011;62266;53.348;-1.496;2022-07-18T14:21:21;2.53;;;1.50;;
73919;SDS011;62266;53.348;-1.496;2022-07-18T14:23:47;3.00;;;1.40;;
73919;SDS011;62266;53.348;-1.496;2022-07-18T14:26:13;2.03;;;1.58;;
73919;SDS011;62266;53.348;-1.496;2022-07-18T14:28:39;2.57;;;1.50;;
73919;SDS011;62266;53.348;-1.496;2022-07-18T14:31:04;2.25;;;1.60;;
73919;SDS011;62266;53.348;-1.496;2022-07-18T14:33:30;2.33;;;1.58;;
73919;SDS011;62266;53.348;-1.496;2022-07-18T14:35:57;1.63;;;1.53;;
73919;SDS011;62266;53.348;-1.496;2022-07-18T14:38:23;5.47;;;1.88;;
73919;SDS011;62266;53.348;-1.496;2022-07-18T14:40:49;2.28;;;1.63;;
73919;SDS011;62266;53.348;-1.496;2022-07-18T14:43:15;4.87;;;1.90;;
73919;SDS011;62266;53.348;-1.496;2022-07-18T14:45:41;2.28;;;1.67;;
73919;SDS011;62266;53.348;-1.496;2022-07-18T14:48:06;2.80;;;1.85;;
73919;SDS011;62266;53.348;-1.496;2022-07-18T14:50:32;2.13;;;1.30;;
73919;SDS011;62266;53.348;-1.496;2022-07-18T14:52:58;2.53;;;1.70;;
73919;SDS011;62266;53.348;-1.496;2022-07-18T14:55:25;3.42;;;1.98;;
73919;SDS011;62266;53.348;-1.496;2022-07-18T14:57:51;4.13;;;2.13;;
73919;SDS011;62266;53.348;-1.496;2022-07-18T15:00:17;3.00;;;1.70;;
73919;SDS011;62266;53.348;-1.496;2022-07-18T15:02:46;3.60;;;1.90;;
73919;SDS011;62266;53.348;-1.496;2022-07-18T15:05:12;2.38;;;1.63;;